createdAt,value
2019-02-24T00:02:21.730Z,21.40
2019-02-24T00:04:50.940Z,19.37
2019-02-24T00:07:20.102Z,25.02
2019-02-24T00:09:49.237Z,22.75
2019-02-24T00:12:18.467Z,23.22
2019-02-24T00:14:47.687Z,23.77
2019-02-24T00:17:16.808Z,29.90
2019-02-24T00:19:45.951Z,27.37
2019-02-24T00:22:15.147Z,28.67
2019-02-24T00:24:44.358Z,28.42
2019-02-24T00:27:13.519Z,32.63
2019-02-24T00:29:42.696Z,27.48
2019-02-24T00:32:11.833Z,30.48
2019-02-24T00:34:40.999Z,22.45
2019-02-24T00:37:10.171Z,27.42
2019-02-24T00:39:39.373Z,21.23
2019-02-24T00:42:08.590Z,24.07
2019-02-24T00:44:37.747Z,27.00
2019-02-24T00:47:06.947Z,26.00
2019-02-24T00:49:36.108Z,24.90
2019-02-24T00:52:05.253Z,21.42
2019-02-24T00:54:34.414Z,26.97
2019-02-24T00:57:03.561Z,24.85
2019-02-24T00:59:32.768Z,29.32
2019-02-24T01:02:01.917Z,28.00
2019-02-24T01:04:31.104Z,23.15
2019-02-24T01:07:00.228Z,30.82
2019-02-24T01:09:29.384Z,24.05
2019-02-24T01:11:58.574Z,30.02
2019-02-24T01:14:27.714Z,25.37
2019-02-24T01:16:57.084Z,21.77
2019-02-24T01:19:26.230Z,21.68
2019-02-24T01:21:55.392Z,24.18
2019-02-24T01:24:24.530Z,28.38
2019-02-24T01:26:53.673Z,22.62
2019-02-24T01:29:22.819Z,25.50
2019-02-24T01:31:51.997Z,15.45
2019-02-24T01:34:21.176Z,21.27
2019-02-24T01:36:50.329Z,19.70
2019-02-24T01:39:19.455Z,23.52
2019-02-24T01:41:48.624Z,16.57
2019-02-24T01:44:17.770Z,25.62
2019-02-24T01:46:46.981Z,22.93
2019-02-24T01:49:16.118Z,25.55
2019-02-24T01:51:45.319Z,27.65
2019-02-24T01:54:14.466Z,23.55
2019-02-24T01:56:43.604Z,23.40
2019-02-24T01:59:12.756Z,18.15
2019-02-24T02:01:41.901Z,30.70
2019-02-24T02:04:11.039Z,25.65
2019-02-24T02:06:40.180Z,19.92
2019-02-24T02:09:09.326Z,29.80
2019-02-24T02:11:38.480Z,21.12
2019-02-24T02:14:07.674Z,29.55
2019-02-24T02:16:36.856Z,18.12
2019-02-24T02:19:06.000Z,19.30
2019-02-24T02:21:35.140Z,24.80
2019-02-24T02:24:04.292Z,26.40
2019-02-24T02:26:33.437Z,28.50
2019-02-24T02:29:02.609Z,30.57
2019-02-24T02:31:31.844Z,30.68
2019-02-24T02:34:01.048Z,25.50
2019-02-24T02:36:30.218Z,23.77
2019-02-24T02:38:59.356Z,21.05
2019-02-24T02:41:28.503Z,19.27
2019-02-24T02:43:57.639Z,26.80
2019-02-24T02:46:26.805Z,24.43
2019-02-24T02:48:55.969Z,23.65
2019-02-24T02:51:25.134Z,22.17
2019-02-24T02:53:54.371Z,27.65
2019-02-24T02:56:23.545Z,17.48
2019-02-24T02:58:54.569Z,25.80
2019-02-24T03:01:23.590Z,21.57
2019-02-24T03:03:52.757Z,20.60
2019-02-24T03:06:44.877Z,16.20
2019-02-24T03:09:14.006Z,23.22
2019-02-24T03:11:43.147Z,20.45
2019-02-24T03:14:12.301Z,27.42
2019-02-24T03:16:41.468Z,22.37
2019-02-24T03:19:10.627Z,30.43
2019-02-24T03:21:39.827Z,23.12
2019-02-24T03:24:08.992Z,25.52
2019-02-24T03:26:38.179Z,15.23
2019-02-24T03:29:07.348Z,17.77
2019-02-24T03:31:36.536Z,18.17
2019-02-24T03:34:05.671Z,20.68
2019-02-24T03:36:34.844Z,25.88
2019-02-24T03:39:04.237Z,23.77
2019-02-24T03:41:33.388Z,26.37
2019-02-24T03:44:02.579Z,29.10
2019-02-24T03:46:31.735Z,26.52
2019-02-24T03:49:00.909Z,22.22
2019-02-24T03:51:30.054Z,22.52
2019-02-24T03:53:59.215Z,29.23
2019-02-24T03:56:28.468Z,28.30
2019-02-24T03:58:57.656Z,27.50
2019-02-24T04:01:26.803Z,27.55
2019-02-24T04:03:56.165Z,26.20
2019-02-24T04:06:25.307Z,21.12
2019-02-24T04:08:54.442Z,17.65
2019-02-24T04:11:23.562Z,20.90
2019-02-24T04:13:52.722Z,17.85
2019-02-24T04:16:24.020Z,15.08
2019-02-24T04:18:53.158Z,21.40
2019-02-24T04:21:22.323Z,28.38
2019-02-24T04:23:51.792Z,28.83
2019-02-24T04:26:20.984Z,19.75
2019-02-24T04:28:50.130Z,14.13
2019-02-24T04:31:19.313Z,16.62
2019-02-24T04:33:48.426Z,15.45
2019-02-24T04:36:17.572Z,19.55
2019-02-24T04:38:46.791Z,22.25
2019-02-24T04:41:15.942Z,19.98
2019-02-24T04:43:45.084Z,18.60
2019-02-24T04:46:14.243Z,14.63
2019-02-24T04:48:43.358Z,26.70
2019-02-24T04:51:12.519Z,18.25
2019-02-24T04:53:41.645Z,18.20
2019-02-24T04:56:10.777Z,13.93
2019-02-24T04:58:39.910Z,24.23
2019-02-24T05:01:10.615Z,18.55
2019-02-24T05:03:39.737Z,17.15
2019-02-24T05:06:08.880Z,18.32
2019-02-24T05:08:37.999Z,24.47
2019-02-24T05:11:07.162Z,26.37
2019-02-24T05:13:36.295Z,25.97
2019-02-24T05:16:05.454Z,24.27
2019-02-24T05:18:34.580Z,27.77
2019-02-24T05:21:03.717Z,16.80
2019-02-24T05:23:32.892Z,20.97
2019-02-24T05:26:02.058Z,17.57
2019-02-24T05:28:31.186Z,22.00
2019-02-24T05:31:00.338Z,21.68
2019-02-24T05:33:29.559Z,17.77
2019-02-24T05:35:58.728Z,17.05
2019-02-24T05:38:27.857Z,19.77
2019-02-24T05:40:56.998Z,13.80
2019-02-24T05:43:26.134Z,13.80
2019-02-24T05:45:55.298Z,13.65
2019-02-24T05:48:24.432Z,13.88
2019-02-24T05:50:53.651Z,20.52
2019-02-24T05:53:22.791Z,23.77
2019-02-24T05:55:51.948Z,16.30
2019-02-24T05:58:21.090Z,23.55
2019-02-24T06:00:50.346Z,16.82
2019-02-24T06:03:19.479Z,14.15
2019-02-24T06:05:48.627Z,12.75
2019-02-24T06:08:17.778Z,16.70
2019-02-24T06:10:46.894Z,28.87
2019-02-24T06:13:16.055Z,13.85
2019-02-24T06:15:45.237Z,17.32
2019-02-24T06:18:14.401Z,18.23
2019-02-24T06:20:43.549Z,20.57
2019-02-24T06:23:12.699Z,13.35
2019-02-24T06:25:41.865Z,24.40
2019-02-24T06:28:11.005Z,16.23
2019-02-24T06:30:40.293Z,15.63
2019-02-24T06:33:09.433Z,15.15
2019-02-24T06:35:38.619Z,12.10
2019-02-24T06:38:07.752Z,16.67
2019-02-24T06:40:36.980Z,20.85
2019-02-24T06:43:06.113Z,13.25
2019-02-24T06:45:35.256Z,18.40
2019-02-24T06:48:04.436Z,14.95
2019-02-24T06:50:52.674Z,16.00
2019-02-24T06:53:21.987Z,16.05
2019-02-24T06:55:51.137Z,17.10
2019-02-24T06:58:20.282Z,21.12
2019-02-24T07:00:49.419Z,22.73
2019-02-24T07:03:19.276Z,21.23
2019-02-24T07:05:48.448Z,22.52
2019-02-24T07:08:17.630Z,20.97
2019-02-24T07:10:46.765Z,19.15
2019-02-24T07:13:15.943Z,19.42
2019-02-24T07:15:45.103Z,20.45
2019-02-24T07:18:14.255Z,21.60
2019-02-24T07:20:43.490Z,19.07
2019-02-24T07:23:12.621Z,16.35
2019-02-24T07:25:41.768Z,16.90
2019-02-24T07:28:14.001Z,18.35
2019-02-24T07:30:43.138Z,19.98
2019-02-24T07:33:12.537Z,20.15
2019-02-24T07:35:41.707Z,19.70
2019-02-24T07:38:10.877Z,21.82
2019-02-24T07:40:40.032Z,18.23
2019-02-24T07:43:09.242Z,19.17
2019-02-24T07:45:38.368Z,17.15
2019-02-24T07:48:07.554Z,17.45
2019-02-24T07:50:36.693Z,16.55
2019-02-24T07:53:06.052Z,18.52
2019-02-24T07:55:35.214Z,17.50
2019-02-24T07:58:04.348Z,16.80
2019-02-24T08:00:33.486Z,17.15
2019-02-24T08:03:02.656Z,16.32
2019-02-24T08:05:31.896Z,18.98
2019-02-24T08:08:02.517Z,18.27
2019-02-24T08:10:31.744Z,17.48
2019-02-24T08:13:00.916Z,16.82
2019-02-24T08:15:30.148Z,17.20
2019-02-24T08:17:59.339Z,17.23
2019-02-24T08:20:28.479Z,18.05
2019-02-24T08:22:57.717Z,17.87
2019-02-24T08:25:26.975Z,16.00
2019-02-24T08:27:56.150Z,17.55
2019-02-24T08:30:25.317Z,13.95
2019-02-24T08:32:54.527Z,15.72
2019-02-24T08:35:23.715Z,13.80
2019-02-24T08:37:52.967Z,14.47
2019-02-24T08:40:22.137Z,14.10
2019-02-24T08:42:51.325Z,14.78
2019-02-24T08:45:20.519Z,14.15
2019-02-24T08:47:49.667Z,14.80
2019-02-24T08:50:18.840Z,15.15
2019-02-24T08:52:47.997Z,11.33
2019-02-24T08:55:17.170Z,13.53
2019-02-24T08:57:46.414Z,13.70
2019-02-24T09:00:15.600Z,13.35
2019-02-24T09:02:44.824Z,13.72
2019-02-24T09:05:14.150Z,13.70
2019-02-24T09:07:43.354Z,13.40
2019-02-24T09:10:12.482Z,13.05
2019-02-24T09:12:41.845Z,14.10
2019-02-24T09:15:11.165Z,12.20
2019-02-24T09:17:40.380Z,12.80
2019-02-24T09:20:10.122Z,13.62
2019-02-24T09:22:39.276Z,13.38
2019-02-24T09:25:08.841Z,13.35
2019-02-24T09:27:38.185Z,12.90
2019-02-24T09:30:08.383Z,14.70
2019-02-24T09:32:37.787Z,13.00
2019-02-24T09:35:07.930Z,13.28
2019-02-24T09:37:37.065Z,15.00
2019-02-24T09:40:07.493Z,14.45
2019-02-24T09:42:36.701Z,14.98
2019-02-24T09:45:06.549Z,15.32
2019-02-24T09:47:35.733Z,12.75
2019-02-24T09:50:05.057Z,13.72
2019-02-24T09:52:34.221Z,14.85
2019-02-24T09:55:03.404Z,13.93
2019-02-24T09:57:32.572Z,13.62
2019-02-24T10:00:01.820Z,15.10
2019-02-24T10:02:31.069Z,12.73
2019-02-24T10:05:00.278Z,13.10
2019-02-24T10:07:29.449Z,12.25
2019-02-24T10:09:58.705Z,13.20
2019-02-24T10:12:27.960Z,12.33
2019-02-24T10:14:57.147Z,12.60
2019-02-24T10:17:26.349Z,12.25
2019-02-24T10:19:55.562Z,11.93
2019-02-24T10:22:24.826Z,11.80
2019-02-24T10:24:54.338Z,14.20
2019-02-24T10:27:23.487Z,11.60
2019-02-24T10:29:52.683Z,11.53
2019-02-24T10:32:21.866Z,11.63
2019-02-24T10:34:51.389Z,14.73
2019-02-24T10:37:20.734Z,12.43
2019-02-24T10:39:49.906Z,11.70
2019-02-24T10:42:20.028Z,11.45
2019-02-24T10:44:49.204Z,11.15
2019-02-24T10:47:18.417Z,10.30
2019-02-24T10:49:47.776Z,10.05
2019-02-24T10:52:17.209Z,7.80
2019-02-24T10:54:46.671Z,9.35
2019-02-24T10:57:16.114Z,9.85
2019-02-24T10:59:45.403Z,9.05
2019-02-24T11:02:14.556Z,8.55
2019-02-24T11:04:43.791Z,10.58
2019-02-24T11:07:12.981Z,7.83
2019-02-24T11:09:42.186Z,8.35
2019-02-24T11:12:11.368Z,9.55
2019-02-24T11:14:40.560Z,9.45
2019-02-24T11:17:09.736Z,10.85
2019-02-24T11:19:39.002Z,9.05
2019-02-24T11:22:08.216Z,8.45
2019-02-24T11:24:37.416Z,8.03
2019-02-24T11:27:06.578Z,7.42
2019-02-24T11:29:35.782Z,8.33
2019-02-24T11:32:04.942Z,7.78
2019-02-24T11:34:34.229Z,9.05
2019-02-24T11:37:03.439Z,7.45
2019-02-24T11:39:32.667Z,9.80
2019-02-24T11:42:01.825Z,8.65
2019-02-24T11:44:31.046Z,7.37
2019-02-24T11:47:00.223Z,7.67
2019-02-24T11:49:29.409Z,6.95
2019-02-24T11:52:03.803Z,7.12
2019-02-24T11:54:29.451Z,6.58
2019-02-24T11:56:58.719Z,6.53
2019-02-24T11:59:27.887Z,8.08
2019-02-24T12:01:57.097Z,6.37
2019-02-24T12:04:26.270Z,6.92
2019-02-24T12:06:55.488Z,7.05
2019-02-24T12:09:24.646Z,6.67
2019-02-24T12:11:53.806Z,6.22
2019-02-24T12:14:23.013Z,8.08
2019-02-24T12:16:52.276Z,6.67
2019-02-24T12:19:21.569Z,8.08
2019-02-24T12:21:50.780Z,7.65
2019-02-24T12:24:20.022Z,6.30
2019-02-24T12:26:49.182Z,7.20
2019-02-24T12:29:18.343Z,5.80
2019-02-24T12:31:56.177Z,6.97
2019-02-24T12:34:18.426Z,9.15
2019-02-24T12:36:47.595Z,5.90
2019-02-24T12:39:16.754Z,6.62
2019-02-24T12:41:45.901Z,7.40
2019-02-24T12:44:15.053Z,8.43
2019-02-24T12:46:44.266Z,6.10
2019-02-24T12:49:13.438Z,5.12
2019-02-24T12:51:42.612Z,7.17
2019-02-24T12:54:11.781Z,7.30
2019-02-24T12:56:40.956Z,5.62
2019-02-24T12:59:11.933Z,4.67
2019-02-24T13:01:41.302Z,5.62
2019-02-24T13:04:10.528Z,5.05
2019-02-24T13:06:39.785Z,7.80
2019-02-24T13:09:10.357Z,6.35
2019-02-24T13:11:39.510Z,5.97
2019-02-24T13:14:08.887Z,7.65
2019-02-24T13:16:38.101Z,6.00
2019-02-24T13:19:07.231Z,7.58
2019-02-24T13:21:36.489Z,5.90
2019-02-24T13:24:05.813Z,6.58
2019-02-24T13:26:35.132Z,7.15
2019-02-24T13:29:04.295Z,6.50
2019-02-24T13:31:33.428Z,4.95
2019-02-24T13:34:02.628Z,4.58
2019-02-24T13:36:31.820Z,4.30
2019-02-24T13:39:00.928Z,5.25
2019-02-24T13:41:30.176Z,5.60
2019-02-24T13:43:59.350Z,6.15
2019-02-24T13:46:28.496Z,5.95
2019-02-24T13:48:57.658Z,4.92
2019-02-24T13:51:26.834Z,4.90
2019-02-24T13:53:56.012Z,5.08
2019-02-24T13:56:25.265Z,3.95
2019-02-24T13:58:54.416Z,6.45
2019-02-24T14:01:23.591Z,6.05
2019-02-24T14:03:52.921Z,4.58
2019-02-24T14:06:22.059Z,4.75
2019-02-24T14:08:51.249Z,5.05
2019-02-24T14:11:20.401Z,4.30
2019-02-24T14:13:49.541Z,4.33
2019-02-24T14:16:18.680Z,3.45
2019-02-24T14:18:47.851Z,3.05
2019-02-24T14:21:19.739Z,2.90
2019-02-24T14:23:48.923Z,2.77
2019-02-24T14:26:19.753Z,3.55
2019-02-24T14:28:49.080Z,3.60
2019-02-24T14:31:18.251Z,2.62
2019-02-24T14:33:47.476Z,3.20
2019-02-24T14:36:16.615Z,3.95
2019-02-24T14:38:45.761Z,2.52
2019-02-24T14:41:14.926Z,4.22
2019-02-24T14:43:44.068Z,3.80
2019-02-24T14:46:13.270Z,4.40
2019-02-24T14:48:44.720Z,4.60
2019-02-24T14:51:13.614Z,2.60
2019-02-24T14:53:42.774Z,2.60
2019-02-24T14:56:11.942Z,3.27
2019-02-24T14:58:41.166Z,2.75
2019-02-24T15:01:10.351Z,3.83
2019-02-24T15:03:39.517Z,2.72
2019-02-24T15:06:08.691Z,3.33
2019-02-24T15:08:37.889Z,3.50
2019-02-24T15:11:07.189Z,3.75
2019-02-24T15:13:36.386Z,2.72
2019-02-24T15:16:05.645Z,2.27
2019-02-24T15:18:34.890Z,3.47
2019-02-24T15:21:04.075Z,3.35
2019-02-24T15:23:33.313Z,2.83
2019-02-24T15:26:02.479Z,3.52
2019-02-24T15:28:31.677Z,3.75
2019-02-24T15:31:00.808Z,5.50
2019-02-24T15:33:29.975Z,5.70
2019-02-24T15:35:59.109Z,7.53
2019-02-24T15:38:28.294Z,6.62
2019-02-24T15:40:57.462Z,4.90
2019-02-24T15:43:26.661Z,5.42
2019-02-24T15:45:55.887Z,4.28
2019-02-24T15:48:25.156Z,4.12
2019-02-24T15:50:54.338Z,4.28
2019-02-24T15:53:24.410Z,2.90
2019-02-24T15:55:53.750Z,4.92
2019-02-24T15:58:22.997Z,3.25
2019-02-24T16:00:52.166Z,3.40
2019-02-24T16:03:21.424Z,2.85
2019-02-24T16:05:50.587Z,4.90
2019-02-24T16:08:19.825Z,4.92
2019-02-24T16:10:49.135Z,4.75
2019-02-24T16:13:18.295Z,4.90
2019-02-24T16:15:47.619Z,5.37
2019-02-24T16:18:16.796Z,4.58
2019-02-24T16:20:46.091Z,6.08
2019-02-24T16:23:15.385Z,5.60
2019-02-24T16:25:44.985Z,5.37
2019-02-24T16:28:14.219Z,7.17
2019-02-24T16:30:45.854Z,6.75
2019-02-24T16:33:15.208Z,11.30
2019-02-24T16:35:44.540Z,11.90
2019-02-24T16:38:13.735Z,12.58
2019-02-24T16:40:42.953Z,8.63
2019-02-24T16:43:12.258Z,5.80
2019-02-24T16:45:41.966Z,5.90
2019-02-24T16:48:11.217Z,5.22
2019-02-24T16:50:42.600Z,4.62
2019-02-24T16:53:11.860Z,4.45
2019-02-24T16:55:41.089Z,4.62
2019-02-24T16:58:10.292Z,5.85
2019-02-24T17:00:39.609Z,5.33
2019-02-24T17:03:09.167Z,4.55
2019-02-24T17:05:38.654Z,5.60
2019-02-24T17:08:08.268Z,6.22
2019-02-24T17:10:37.782Z,5.33
2019-02-24T17:13:07.029Z,6.00
2019-02-24T17:15:36.197Z,5.97
2019-02-24T17:18:05.382Z,5.22
2019-02-24T17:20:34.566Z,6.33
2019-02-24T17:23:03.886Z,6.72
2019-02-24T17:25:33.077Z,7.58
2019-02-24T17:28:02.378Z,4.97
2019-02-24T17:30:31.708Z,7.72
2019-02-24T17:33:01.011Z,6.60
2019-02-24T17:35:30.329Z,7.20
2019-02-24T17:37:59.648Z,5.33
2019-02-24T17:40:28.858Z,6.10
2019-02-24T17:42:58.193Z,7.37
2019-02-24T17:45:27.632Z,9.58
2019-02-24T17:47:57.214Z,6.47
2019-02-24T17:50:27.122Z,6.55
2019-02-24T17:52:56.684Z,6.87
2019-02-24T17:55:26.059Z,6.17
2019-02-24T17:57:56.012Z,7.15
2019-02-24T18:00:29.379Z,8.43
2019-02-24T18:02:59.404Z,6.55
2019-02-24T18:05:28.712Z,7.17
2019-02-24T18:08:00.502Z,8.35
2019-02-24T18:10:30.033Z,9.88
2019-02-24T18:12:59.218Z,7.37
2019-02-24T18:15:28.664Z,6.70
2019-02-24T18:17:57.913Z,7.85
2019-02-24T18:20:27.179Z,9.15
2019-02-24T18:22:56.837Z,7.12
2019-02-24T18:25:26.174Z,5.53
2019-02-24T18:27:55.631Z,7.10
2019-02-24T18:30:25.093Z,5.50
2019-02-24T18:32:54.593Z,7.55
2019-02-24T18:35:23.791Z,6.40
2019-02-24T18:37:53.512Z,4.92
2019-02-24T18:40:23.415Z,4.90
2019-02-24T18:42:59.608Z,6.22
2019-02-24T18:45:25.223Z,6.03
2019-02-24T18:47:54.727Z,7.42
2019-02-24T18:50:25.272Z,6.78
2019-02-24T18:52:54.711Z,7.92
2019-02-24T18:55:24.391Z,6.92
2019-02-24T18:57:55.985Z,8.70
2019-02-24T19:00:26.164Z,7.65
2019-02-24T19:02:55.775Z,5.83
2019-02-24T19:05:26.203Z,8.53
2019-02-24T19:07:55.610Z,8.05
2019-02-24T19:10:25.696Z,5.70
2019-02-24T19:12:55.911Z,6.67
2019-02-24T19:15:25.418Z,7.25
2019-02-24T19:17:55.207Z,9.58
2019-02-24T19:20:25.576Z,8.25
2019-02-24T19:22:55.651Z,7.35
2019-02-24T19:25:25.121Z,6.87
2019-02-24T19:27:54.761Z,9.78
2019-02-24T19:30:25.989Z,6.35
2019-02-24T19:32:55.726Z,5.70
2019-02-24T19:35:25.647Z,7.75
2019-02-24T19:37:55.196Z,8.50
2019-02-24T19:40:25.082Z,8.18
2019-02-24T19:42:54.490Z,9.13
2019-02-24T19:45:24.689Z,7.85
2019-02-24T19:47:54.615Z,10.05
2019-02-24T19:50:24.708Z,7.47
2019-02-24T19:52:54.191Z,9.08
2019-02-24T19:55:24.311Z,9.53
2019-02-24T19:57:53.956Z,12.18
2019-02-24T20:00:23.384Z,18.82
2019-02-24T20:02:52.903Z,12.45
2019-02-24T20:05:22.495Z,8.88
2019-02-24T20:07:52.213Z,9.15
2019-02-24T20:10:22.058Z,9.33
2019-02-24T20:12:51.396Z,8.13
2019-02-24T20:15:21.388Z,8.63
2019-02-24T20:17:51.232Z,9.45
2019-02-24T20:20:20.725Z,6.75
2019-02-24T20:22:50.670Z,9.95
2019-02-24T20:25:20.097Z,8.10
2019-02-24T20:27:49.559Z,6.00
2019-02-24T20:30:24.793Z,6.35
2019-02-24T20:32:54.322Z,7.62
2019-02-24T20:35:23.658Z,8.45
2019-02-24T20:37:55.031Z,8.98
2019-02-24T20:40:24.661Z,7.08
2019-02-24T20:42:54.181Z,7.67
2019-02-24T20:45:23.667Z,6.67
2019-02-24T20:47:53.596Z,7.97
2019-02-24T20:50:23.571Z,8.48
2019-02-24T20:52:53.453Z,7.70
2019-02-24T20:55:23.097Z,7.65
2019-02-24T20:57:52.532Z,9.53
2019-02-24T21:00:27.864Z,9.08
2019-02-24T21:02:57.291Z,8.93
2019-02-24T21:05:26.813Z,7.72
2019-02-24T21:07:56.106Z,9.35
2019-02-24T21:10:26.686Z,6.87
2019-02-24T21:12:55.951Z,7.47
2019-02-24T21:15:25.781Z,11.03
2019-02-24T21:17:55.089Z,11.63
2019-02-24T21:20:26.284Z,11.35
2019-02-24T21:22:55.448Z,10.40
2019-02-24T21:25:24.711Z,7.78
2019-02-24T21:27:54.002Z,9.73
2019-02-24T21:30:23.376Z,10.08
2019-02-24T21:32:52.523Z,10.38
2019-02-24T21:35:22.710Z,9.13
2019-02-24T21:37:51.966Z,9.00
2019-02-24T21:40:23.450Z,7.95
2019-02-24T21:42:52.392Z,6.85
2019-02-24T21:45:23.219Z,5.87
2019-02-24T21:47:52.473Z,11.08
2019-02-24T21:50:21.846Z,12.18
2019-02-24T21:52:51.104Z,10.35
2019-02-24T21:55:20.221Z,17.37
2019-02-24T21:57:49.534Z,16.25
2019-02-24T22:00:20.144Z,13.85
2019-02-24T22:02:49.383Z,11.57
2019-02-24T22:05:18.581Z,8.23
2019-02-24T22:07:47.755Z,12.28
2019-02-24T22:10:17.517Z,10.95
2019-02-24T22:12:46.685Z,9.93
2019-02-24T22:15:17.390Z,8.05
2019-02-24T22:17:46.619Z,10.43
2019-02-24T22:20:16.410Z,9.78
2019-02-24T22:22:45.589Z,6.70
2019-02-24T22:25:14.898Z,10.18
2019-02-24T22:27:44.404Z,9.28
2019-02-24T22:30:14.698Z,10.72
2019-02-24T22:32:43.876Z,11.85
2019-02-24T22:35:13.049Z,11.70
2019-02-24T22:37:42.202Z,11.22
2019-02-24T22:40:11.884Z,8.60
2019-02-24T22:42:41.058Z,10.32
2019-02-24T22:45:12.478Z,11.85
2019-02-24T22:47:41.675Z,12.35
2019-02-24T22:50:10.832Z,7.47
2019-02-24T22:52:39.986Z,7.22
2019-02-24T22:55:10.025Z,8.03
2019-02-24T22:57:39.267Z,8.48
2019-02-24T23:00:28.955Z,10.58
2019-02-24T23:02:58.107Z,9.73
2019-02-24T23:05:27.241Z,9.20
2019-02-24T23:07:56.398Z,10.72
2019-02-24T23:10:25.527Z,10.53
2019-02-24T23:12:54.660Z,8.98
2019-02-24T23:15:23.922Z,7.12
2019-02-24T23:17:53.055Z,8.10
2019-02-24T23:20:22.172Z,9.33
2019-02-24T23:22:51.306Z,8.23
2019-02-24T23:25:20.450Z,10.00
2019-02-24T23:27:49.583Z,8.28
2019-02-24T23:30:18.714Z,11.35
2019-02-24T23:32:47.885Z,8.05
2019-02-24T23:35:17.030Z,11.33
2019-02-24T23:37:46.152Z,7.90
2019-02-24T23:40:15.302Z,8.65
2019-02-24T23:42:44.450Z,8.55
2019-02-24T23:45:13.693Z,8.03
2019-02-24T23:47:42.822Z,9.45
2019-02-24T23:50:11.947Z,9.23
2019-02-24T23:52:41.189Z,9.70
2019-02-24T23:55:10.446Z,8.73
2019-02-24T23:57:39.631Z,8.05
